sensor_id;sensor_type;location;lat;lon;timestamp;P1;durP1;ratioP1;P2;durP2;ratioP2
72156;SDS011;60035;52.122;5.406;2023-04-07T00:00:29;13.02;;;4.75;;
72156;SDS011;60035;52.122;5.406;2023-04-07T00:02:55;15.38;;;4.43;;
72156;SDS011;60035;52.122;5.406;2023-04-07T00:05:22;13.35;;;4.10;;
72156;SDS011;60035;52.122;5.406;2023-04-07T00:07:49;10.73;;;3.33;;
72156;SDS011;60035;52.122;5.406;2023-04-07T00:10:22;11.98;;;4.22;;
72156;SDS011;60035;52.122;5.406;2023-04-07T00:12:51;12.10;;;3.58;;
72156;SDS011;60035;52.122;5.406;2023-04-07T00:15:18;13.02;;;3.80;;
72156;SDS011;60035;52.122;5.406;2023-04-07T00:17:44;12.95;;;3.55;;
72156;SDS011;60035;52.122;5.406;2023-04-07T00:20:11;17.42;;;4.30;;
72156;SDS011;60035;52.122;5.406;2023-04-07T00:22:37;13.25;;;4.15;;
72156;SDS011;60035;52.122;5.406;2023-04-07T00:25:04;15.43;;;4.18;;
72156;SDS011;60035;52.122;5.406;2023-04-07T00:27:31;14.25;;;4.07;;
72156;SDS011;60035;52.122;5.406;2023-04-07T00:29:58;13.75;;;4.45;;
72156;SDS011;60035;52.122;5.406;2023-04-07T00:32:24;13.13;;;4.63;;
72156;SDS011;60035;52.122;5.406;2023-04-07T00:34:51;13.68;;;4.70;;
72156;SDS011;60035;52.122;5.406;2023-04-07T00:37:17;15.75;;;4.20;;
72156;SDS011;60035;52.122;5.406;2023-04-07T00:39:44;14.73;;;5.10;;
72156;SDS011;60035;52.122;5.406;2023-04-07T00:42:11;16.42;;;4.70;;
72156;SDS011;60035;52.122;5.406;2023-04-07T00:44:38;16.45;;;4.47;;
72156;SDS011;60035;52.122;5.406;2023-04-07T00:47:05;14.75;;;4.43;;
72156;SDS011;60035;52.122;5.406;2023-04-07T00:49:31;11.75;;;3.92;;
72156;SDS011;60035;52.122;5.406;2023-04-07T00:51:58;12.50;;;4.07;;
72156;SDS011;60035;52.122;5.406;2023-04-07T00:54:25;12.95;;;4.15;;
72156;SDS011;60035;52.122;5.406;2023-04-07T00:56:52;15.80;;;4.43;;
72156;SDS011;60035;52.122;5.406;2023-04-07T00:59:18;12.48;;;4.13;;
72156;SDS011;60035;52.122;5.406;2023-04-07T01:04:35;14.25;;;4.75;;
72156;SDS011;60035;52.122;5.406;2023-04-07T01:07:08;13.27;;;4.47;;
72156;SDS011;60035;52.122;5.406;2023-04-07T01:09:42;13.30;;;4.63;;
72156;SDS011;60035;52.122;5.406;2023-04-07T01:12:31;15.50;;;4.65;;
72156;SDS011;60035;52.122;5.406;2023-04-07T01:15:08;13.18;;;4.50;;
72156;SDS011;60035;52.122;5.406;2023-04-07T01:17:44;14.98;;;4.65;;
72156;SDS011;60035;52.122;5.406;2023-04-07T01:20:16;13.98;;;4.03;;
72156;SDS011;60035;52.122;5.406;2023-04-07T01:22:47;13.02;;;4.60;;
72156;SDS011;60035;52.122;5.406;2023-04-07T01:31:14;16.23;;;4.68;;
72156;SDS011;60035;52.122;5.406;2023-04-07T01:33:42;16.75;;;5.00;;
72156;SDS011;60035;52.122;5.406;2023-04-07T01:36:11;14.77;;;4.95;;
72156;SDS011;60035;52.122;5.406;2023-04-07T01:38:38;14.73;;;5.03;;
72156;SDS011;60035;52.122;5.406;2023-04-07T01:41:05;13.85;;;4.97;;
72156;SDS011;60035;52.122;5.406;2023-04-07T01:43:35;15.30;;;5.07;;
72156;SDS011;60035;52.122;5.406;2023-04-07T01:46:04;14.38;;;5.50;;
72156;SDS011;60035;52.122;5.406;2023-04-07T01:48:30;14.82;;;4.90;;
72156;SDS011;60035;52.122;5.406;2023-04-07T01:50:58;15.20;;;5.20;;
72156;SDS011;60035;52.122;5.406;2023-04-07T01:53:25;15.45;;;5.90;;
72156;SDS011;60035;52.122;5.406;2023-04-07T01:55:52;14.32;;;5.15;;
72156;SDS011;60035;52.122;5.406;2023-04-07T01:58:19;13.10;;;5.03;;
72156;SDS011;60035;52.122;5.406;2023-04-07T02:00:47;16.77;;;5.75;;
72156;SDS011;60035;52.122;5.406;2023-04-07T02:03:26;17.50;;;5.75;;
72156;SDS011;60035;52.122;5.406;2023-04-07T02:05:57;15.82;;;5.70;;
72156;SDS011;60035;52.122;5.406;2023-04-07T02:08:29;16.63;;;5.45;;
72156;SDS011;60035;52.122;5.406;2023-04-07T02:10:57;17.10;;;5.63;;
72156;SDS011;60035;52.122;5.406;2023-04-07T02:13:28;14.35;;;5.35;;
72156;SDS011;60035;52.122;5.406;2023-04-07T02:15:56;19.08;;;6.07;;
72156;SDS011;60035;52.122;5.406;2023-04-07T02:18:23;20.38;;;5.93;;
72156;SDS011;60035;52.122;5.406;2023-04-07T02:20:53;19.88;;;6.10;;
72156;SDS011;60035;52.122;5.406;2023-04-07T02:23:20;16.27;;;5.38;;
72156;SDS011;60035;52.122;5.406;2023-04-07T02:25:47;15.85;;;5.60;;
72156;SDS011;60035;52.122;5.406;2023-04-07T02:28:13;15.50;;;5.55;;
72156;SDS011;60035;52.122;5.406;2023-04-07T02:30:40;16.23;;;5.82;;
72156;SDS011;60035;52.122;5.406;2023-04-07T02:33:07;21.52;;;5.95;;
72156;SDS011;60035;52.122;5.406;2023-04-07T02:35:33;20.10;;;5.80;;
72156;SDS011;60035;52.122;5.406;2023-04-07T02:37:59;16.27;;;5.63;;
72156;SDS011;60035;52.122;5.406;2023-04-07T02:40:26;18.70;;;6.00;;
72156;SDS011;60035;52.122;5.406;2023-04-07T02:42:53;15.63;;;5.50;;
72156;SDS011;60035;52.122;5.406;2023-04-07T02:45:19;18.13;;;5.97;;
72156;SDS011;60035;52.122;5.406;2023-04-07T02:47:46;18.42;;;5.70;;
72156;SDS011;60035;52.122;5.406;2023-04-07T02:50:12;17.80;;;5.63;;
72156;SDS011;60035;52.122;5.406;2023-04-07T02:52:39;20.55;;;5.70;;
72156;SDS011;60035;52.122;5.406;2023-04-07T02:55:05;16.25;;;5.70;;
72156;SDS011;60035;52.122;5.406;2023-04-07T02:57:32;17.00;;;5.35;;
72156;SDS011;60035;52.122;5.406;2023-04-07T02:59:59;16.23;;;5.47;;
72156;SDS011;60035;52.122;5.406;2023-04-07T03:02:26;16.30;;;4.90;;
72156;SDS011;60035;52.122;5.406;2023-04-07T03:04:52;19.83;;;5.53;;
72156;SDS011;60035;52.122;5.406;2023-04-07T03:07:19;16.10;;;4.88;;
72156;SDS011;60035;52.122;5.406;2023-04-07T03:09:45;15.70;;;4.82;;
72156;SDS011;60035;52.122;5.406;2023-04-07T03:12:12;16.00;;;5.40;;
72156;SDS011;60035;52.122;5.406;2023-04-07T03:14:38;17.13;;;4.63;;
72156;SDS011;60035;52.122;5.406;2023-04-07T03:17:05;14.70;;;4.38;;
72156;SDS011;60035;52.122;5.406;2023-04-07T03:19:32;18.33;;;4.65;;
72156;SDS011;60035;52.122;5.406;2023-04-07T03:21:58;19.30;;;5.20;;
72156;SDS011;60035;52.122;5.406;2023-04-07T03:24:25;17.55;;;5.50;;
72156;SDS011;60035;52.122;5.406;2023-04-07T03:26:52;18.77;;;4.78;;
72156;SDS011;60035;52.122;5.406;2023-04-07T03:29:18;16.05;;;4.55;;
72156;SDS011;60035;52.122;5.406;2023-04-07T03:31:45;15.00;;;4.43;;
72156;SDS011;60035;52.122;5.406;2023-04-07T03:34:12;17.58;;;4.03;;
72156;SDS011;60035;52.122;5.406;2023-04-07T03:36:38;15.82;;;4.63;;
72156;SDS011;60035;52.122;5.406;2023-04-07T03:39:05;12.13;;;3.63;;
72156;SDS011;60035;52.122;5.406;2023-04-07T03:41:31;19.38;;;4.43;;
72156;SDS011;60035;52.122;5.406;2023-04-07T03:43:58;18.38;;;4.47;;
72156;SDS011;60035;52.122;5.406;2023-04-07T03:46:25;16.30;;;4.03;;
72156;SDS011;60035;52.122;5.406;2023-04-07T03:48:52;11.75;;;4.88;;
72156;SDS011;60035;52.122;5.406;2023-04-07T03:51:19;17.85;;;4.35;;
72156;SDS011;60035;52.122;5.406;2023-04-07T03:53:45;16.65;;;4.50;;
72156;SDS011;60035;52.122;5.406;2023-04-07T03:56:12;21.30;;;4.47;;
72156;SDS011;60035;52.122;5.406;2023-04-07T03:58:39;14.05;;;4.28;;
72156;SDS011;60035;52.122;5.406;2023-04-07T04:01:07;16.83;;;4.55;;
72156;SDS011;60035;52.122;5.406;2023-04-07T04:03:34;15.90;;;4.68;;
72156;SDS011;60035;52.122;5.406;2023-04-07T04:06:01;12.65;;;4.10;;
72156;SDS011;60035;52.122;5.406;2023-04-07T04:08:27;15.05;;;4.55;;
72156;SDS011;60035;52.122;5.406;2023-04-07T04:10:54;16.27;;;4.40;;
72156;SDS011;60035;52.122;5.406;2023-04-07T04:13:21;12.18;;;3.92;;
72156;SDS011;60035;52.122;5.406;2023-04-07T04:15:47;15.02;;;4.47;;
72156;SDS011;60035;52.122;5.406;2023-04-07T04:18:14;16.17;;;4.38;;
72156;SDS011;60035;52.122;5.406;2023-04-07T04:20:41;12.65;;;3.95;;
72156;SDS011;60035;52.122;5.406;2023-04-07T04:23:08;15.90;;;3.95;;
72156;SDS011;60035;52.122;5.406;2023-04-07T04:25:34;13.77;;;3.92;;
72156;SDS011;60035;52.122;5.406;2023-04-07T04:28:01;18.55;;;4.53;;
72156;SDS011;60035;52.122;5.406;2023-04-07T04:30:27;15.70;;;4.70;;
72156;SDS011;60035;52.122;5.406;2023-04-07T04:32:54;14.35;;;4.50;;
72156;SDS011;60035;52.122;5.406;2023-04-07T04:35:21;17.80;;;4.70;;
72156;SDS011;60035;52.122;5.406;2023-04-07T04:37:47;17.38;;;4.05;;
72156;SDS011;60035;52.122;5.406;2023-04-07T04:40:13;12.57;;;4.18;;
72156;SDS011;60035;52.122;5.406;2023-04-07T04:42:40;19.00;;;4.40;;
72156;SDS011;60035;52.122;5.406;2023-04-07T04:45:07;14.40;;;4.45;;
72156;SDS011;60035;52.122;5.406;2023-04-07T04:47:33;17.30;;;4.03;;
72156;SDS011;60035;52.122;5.406;2023-04-07T04:50:00;14.98;;;4.35;;
72156;SDS011;60035;52.122;5.406;2023-04-07T04:52:27;15.13;;;4.63;;
72156;SDS011;60035;52.122;5.406;2023-04-07T04:54:53;13.93;;;4.55;;
72156;SDS011;60035;52.122;5.406;2023-04-07T04:57:20;18.85;;;4.45;;
72156;SDS011;60035;52.122;5.406;2023-04-07T04:59:46;17.08;;;4.28;;
72156;SDS011;60035;52.122;5.406;2023-04-07T05:02:13;14.88;;;4.63;;
72156;SDS011;60035;52.122;5.406;2023-04-07T05:04:39;12.93;;;3.95;;
72156;SDS011;60035;52.122;5.406;2023-04-07T05:07:06;16.58;;;4.18;;
72156;SDS011;60035;52.122;5.406;2023-04-07T05:09:33;12.75;;;3.80;;
72156;SDS011;60035;52.122;5.406;2023-04-07T05:11:59;12.45;;;3.80;;
72156;SDS011;60035;52.122;5.406;2023-04-07T05:14:27;10.93;;;3.20;;
72156;SDS011;60035;52.122;5.406;2023-04-07T05:16:54;11.20;;;3.00;;
72156;SDS011;60035;52.122;5.406;2023-04-07T05:19:20;12.48;;;3.53;;
72156;SDS011;60035;52.122;5.406;2023-04-07T05:21:46;12.55;;;3.38;;
72156;SDS011;60035;52.122;5.406;2023-04-07T05:24:13;14.40;;;3.58;;
72156;SDS011;60035;52.122;5.406;2023-04-07T05:26:39;13.18;;;3.80;;
72156;SDS011;60035;52.122;5.406;2023-04-07T05:29:06;12.55;;;3.67;;
72156;SDS011;60035;52.122;5.406;2023-04-07T05:31:32;11.60;;;3.47;;
72156;SDS011;60035;52.122;5.406;2023-04-07T05:34:02;12.70;;;3.83;;
72156;SDS011;60035;52.122;5.406;2023-04-07T05:36:28;11.85;;;4.07;;
72156;SDS011;60035;52.122;5.406;2023-04-07T05:38:56;11.70;;;3.67;;
72156;SDS011;60035;52.122;5.406;2023-04-07T05:41:23;14.60;;;4.07;;
72156;SDS011;60035;52.122;5.406;2023-04-07T05:43:49;12.43;;;3.75;;
72156;SDS011;60035;52.122;5.406;2023-04-07T05:46:16;10.75;;;4.22;;
72156;SDS011;60035;52.122;5.406;2023-04-07T05:48:43;12.95;;;3.45;;
72156;SDS011;60035;52.122;5.406;2023-04-07T05:51:09;14.13;;;3.67;;
72156;SDS011;60035;52.122;5.406;2023-04-07T05:53:36;13.05;;;3.42;;
72156;SDS011;60035;52.122;5.406;2023-04-07T05:56:02;11.45;;;4.13;;
72156;SDS011;60035;52.122;5.406;2023-04-07T05:58:29;13.50;;;3.47;;
72156;SDS011;60035;52.122;5.406;2023-04-07T06:00:55;10.02;;;3.50;;
72156;SDS011;60035;52.122;5.406;2023-04-07T06:03:22;8.63;;;2.92;;
72156;SDS011;60035;52.122;5.406;2023-04-07T06:05:48;11.13;;;3.47;;
72156;SDS011;60035;52.122;5.406;2023-04-07T06:08:15;12.30;;;3.35;;
72156;SDS011;60035;52.122;5.406;2023-04-07T06:10:41;10.27;;;3.38;;
72156;SDS011;60035;52.122;5.406;2023-04-07T06:13:09;13.90;;;3.47;;
72156;SDS011;60035;52.122;5.406;2023-04-07T06:15:36;13.90;;;3.25;;
72156;SDS011;60035;52.122;5.406;2023-04-07T06:18:02;10.45;;;3.30;;
72156;SDS011;60035;52.122;5.406;2023-04-07T06:20:29;11.48;;;3.40;;
72156;SDS011;60035;52.122;5.406;2023-04-07T06:22:55;12.48;;;3.03;;
72156;SDS011;60035;52.122;5.406;2023-04-07T06:25:21;12.82;;;3.65;;
72156;SDS011;60035;52.122;5.406;2023-04-07T06:27:48;11.60;;;2.80;;
72156;SDS011;60035;52.122;5.406;2023-04-07T06:30:15;11.20;;;3.33;;
72156;SDS011;60035;52.122;5.406;2023-04-07T06:32:41;12.80;;;3.47;;
72156;SDS011;60035;52.122;5.406;2023-04-07T06:35:08;12.13;;;3.10;;
72156;SDS011;60035;52.122;5.406;2023-04-07T06:37:34;10.07;;;2.92;;
72156;SDS011;60035;52.122;5.406;2023-04-07T06:40:01;10.68;;;3.10;;
72156;SDS011;60035;52.122;5.406;2023-04-07T06:42:28;11.02;;;3.53;;
72156;SDS011;60035;52.122;5.406;2023-04-07T06:44:55;13.68;;;3.60;;
72156;SDS011;60035;52.122;5.406;2023-04-07T06:47:22;12.05;;;3.58;;
72156;SDS011;60035;52.122;5.406;2023-04-07T06:49:49;11.07;;;3.55;;
72156;SDS011;60035;52.122;5.406;2023-04-07T06:52:16;11.23;;;3.40;;
72156;SDS011;60035;52.122;5.406;2023-04-07T06:54:42;13.55;;;3.47;;
72156;SDS011;60035;52.122;5.406;2023-04-07T06:57:09;14.20;;;4.07;;
72156;SDS011;60035;52.122;5.406;2023-04-07T06:59:37;10.85;;;3.25;;
72156;SDS011;60035;52.122;5.406;2023-04-07T07:02:04;13.63;;;3.67;;
72156;SDS011;60035;52.122;5.406;2023-04-07T07:04:33;13.93;;;3.80;;
72156;SDS011;60035;52.122;5.406;2023-04-07T07:07:00;14.00;;;4.13;;
72156;SDS011;60035;52.122;5.406;2023-04-07T07:09:26;12.90;;;4.72;;
72156;SDS011;60035;52.122;5.406;2023-04-07T07:11:53;15.73;;;4.50;;
72156;SDS011;60035;52.122;5.406;2023-04-07T07:14:19;15.95;;;4.53;;
72156;SDS011;60035;52.122;5.406;2023-04-07T07:16:46;12.98;;;4.32;;
72156;SDS011;60035;52.122;5.406;2023-04-07T07:19:12;11.77;;;3.95;;
72156;SDS011;60035;52.122;5.406;2023-04-07T07:21:40;13.68;;;3.97;;
72156;SDS011;60035;52.122;5.406;2023-04-07T07:24:06;12.13;;;3.80;;
72156;SDS011;60035;52.122;5.406;2023-04-07T07:26:33;13.70;;;4.28;;
72156;SDS011;60035;52.122;5.406;2023-04-07T07:28:59;14.57;;;3.85;;
72156;SDS011;60035;52.122;5.406;2023-04-07T07:31:26;14.60;;;3.97;;
72156;SDS011;60035;52.122;5.406;2023-04-07T07:33:52;13.48;;;4.78;;
72156;SDS011;60035;52.122;5.406;2023-04-07T07:36:19;11.05;;;3.88;;
72156;SDS011;60035;52.122;5.406;2023-04-07T07:38:45;15.07;;;4.10;;
72156;SDS011;60035;52.122;5.406;2023-04-07T07:41:12;11.13;;;3.92;;
72156;SDS011;60035;52.122;5.406;2023-04-07T07:43:38;12.10;;;3.95;;
72156;SDS011;60035;52.122;5.406;2023-04-07T07:46:06;12.45;;;4.22;;
72156;SDS011;60035;52.122;5.406;2023-04-07T07:48:32;14.63;;;4.57;;
72156;SDS011;60035;52.122;5.406;2023-04-07T07:50:59;17.02;;;4.72;;
72156;SDS011;60035;52.122;5.406;2023-04-07T07:53:25;12.27;;;4.07;;
72156;SDS011;60035;52.122;5.406;2023-04-07T07:55:52;13.18;;;4.22;;
72156;SDS011;60035;52.122;5.406;2023-04-07T07:58:21;12.25;;;3.80;;
72156;SDS011;60035;52.122;5.406;2023-04-07T08:00:47;14.35;;;3.47;;
72156;SDS011;60035;52.122;5.406;2023-04-07T08:03:14;14.88;;;4.22;;
72156;SDS011;60035;52.122;5.406;2023-04-07T08:05:42;11.48;;;3.35;;
72156;SDS011;60035;52.122;5.406;2023-04-07T08:08:09;11.80;;;2.65;;
72156;SDS011;60035;52.122;5.406;2023-04-07T08:10:36;16.27;;;3.70;;
72156;SDS011;60035;52.122;5.406;2023-04-07T08:13:02;11.57;;;3.10;;
72156;SDS011;60035;52.122;5.406;2023-04-07T08:15:30;14.93;;;3.30;;
72156;SDS011;60035;52.122;5.406;2023-04-07T08:17:56;11.15;;;3.60;;
72156;SDS011;60035;52.122;5.406;2023-04-07T08:20:25;8.52;;;2.53;;
72156;SDS011;60035;52.122;5.406;2023-04-07T08:22:52;9.98;;;2.90;;
72156;SDS011;60035;52.122;5.406;2023-04-07T08:25:19;10.27;;;2.47;;
72156;SDS011;60035;52.122;5.406;2023-04-07T08:27:46;11.52;;;3.60;;
72156;SDS011;60035;52.122;5.406;2023-04-07T08:30:12;10.32;;;2.30;;
72156;SDS011;60035;52.122;5.406;2023-04-07T08:32:40;11.25;;;3.38;;
72156;SDS011;60035;52.122;5.406;2023-04-07T08:35:08;7.32;;;2.13;;
72156;SDS011;60035;52.122;5.406;2023-04-07T08:37:36;10.15;;;1.98;;
72156;SDS011;60035;52.122;5.406;2023-04-07T08:40:03;9.77;;;2.60;;
72156;SDS011;60035;52.122;5.406;2023-04-07T08:42:31;8.68;;;2.20;;
72156;SDS011;60035;52.122;5.406;2023-04-07T08:45:03;9.18;;;2.38;;
72156;SDS011;60035;52.122;5.406;2023-04-07T08:47:32;12.48;;;2.60;;
72156;SDS011;60035;52.122;5.406;2023-04-07T08:50:00;8.18;;;2.00;;
72156;SDS011;60035;52.122;5.406;2023-04-07T08:52:32;9.68;;;2.03;;
72156;SDS011;60035;52.122;5.406;2023-04-07T08:54:59;10.30;;;2.35;;
72156;SDS011;60035;52.122;5.406;2023-04-07T08:57:29;8.10;;;1.85;;
72156;SDS011;60035;52.122;5.406;2023-04-07T08:59:58;8.65;;;2.47;;
72156;SDS011;60035;52.122;5.406;2023-04-07T09:02:36;9.05;;;2.33;;
72156;SDS011;60035;52.122;5.406;2023-04-07T09:05:05;5.53;;;2.08;;
72156;SDS011;60035;52.122;5.406;2023-04-07T09:07:34;6.90;;;2.20;;
72156;SDS011;60035;52.122;5.406;2023-04-07T09:10:03;9.85;;;2.40;;
72156;SDS011;60035;52.122;5.406;2023-04-07T09:12:30;7.50;;;1.92;;
72156;SDS011;60035;52.122;5.406;2023-04-07T09:14:58;7.38;;;1.95;;
72156;SDS011;60035;52.122;5.406;2023-04-07T09:17:25;8.55;;;2.25;;
72156;SDS011;60035;52.122;5.406;2023-04-07T09:19:57;8.88;;;2.20;;
72156;SDS011;60035;52.122;5.406;2023-04-07T09:22:38;8.43;;;1.90;;
72156;SDS011;60035;52.122;5.406;2023-04-07T09:25:25;10.25;;;2.20;;
72156;SDS011;60035;52.122;5.406;2023-04-07T09:28:02;7.00;;;1.98;;
72156;SDS011;60035;52.122;5.406;2023-04-07T09:30:31;11.05;;;2.10;;
72156;SDS011;60035;52.122;5.406;2023-04-07T09:32:59;12.98;;;2.67;;
72156;SDS011;60035;52.122;5.406;2023-04-07T09:35:26;10.82;;;2.25;;
72156;SDS011;60035;52.122;5.406;2023-04-07T09:38:00;10.98;;;2.47;;
72156;SDS011;60035;52.122;5.406;2023-04-07T09:40:32;8.93;;;2.88;;
72156;SDS011;60035;52.122;5.406;2023-04-07T09:43:01;6.10;;;2.00;;
72156;SDS011;60035;52.122;5.406;2023-04-07T09:45:29;7.40;;;2.88;;
72156;SDS011;60035;52.122;5.406;2023-04-07T09:48:05;7.28;;;1.85;;
72156;SDS011;60035;52.122;5.406;2023-04-07T09:50:50;7.20;;;1.95;;
72156;SDS011;60035;52.122;5.406;2023-04-07T09:53:17;10.40;;;2.63;;
72156;SDS011;60035;52.122;5.406;2023-04-07T09:55:48;9.40;;;1.95;;
72156;SDS011;60035;52.122;5.406;2023-04-07T09:58:15;6.80;;;1.90;;
72156;SDS011;60035;52.122;5.406;2023-04-07T10:00:42;6.88;;;2.42;;
72156;SDS011;60035;52.122;5.406;2023-04-07T10:03:09;8.02;;;2.75;;
72156;SDS011;60035;52.122;5.406;2023-04-07T10:05:36;7.53;;;1.63;;
72156;SDS011;60035;52.122;5.406;2023-04-07T10:08:04;6.25;;;1.88;;
72156;SDS011;60035;52.122;5.406;2023-04-07T10:10:33;6.95;;;1.65;;
72156;SDS011;60035;52.122;5.406;2023-04-07T10:13:01;8.85;;;1.73;;
72156;SDS011;60035;52.122;5.406;2023-04-07T10:15:30;7.57;;;2.30;;
72156;SDS011;60035;52.122;5.406;2023-04-07T10:17:56;8.27;;;2.15;;
72156;SDS011;60035;52.122;5.406;2023-04-07T10:20:24;6.85;;;2.05;;
72156;SDS011;60035;52.122;5.406;2023-04-07T10:22:52;6.93;;;2.28;;
72156;SDS011;60035;52.122;5.406;2023-04-07T10:25:24;8.82;;;2.10;;
72156;SDS011;60035;52.122;5.406;2023-04-07T10:27:52;7.40;;;1.45;;
72156;SDS011;60035;52.122;5.406;2023-04-07T10:30:25;6.18;;;2.17;;
72156;SDS011;60035;52.122;5.406;2023-04-07T10:32:55;6.47;;;2.10;;
72156;SDS011;60035;52.122;5.406;2023-04-07T10:35:22;5.60;;;1.70;;
72156;SDS011;60035;52.122;5.406;2023-04-07T10:40:36;7.85;;;1.35;;
72156;SDS011;60035;52.122;5.406;2023-04-07T10:43:03;7.18;;;2.50;;
72156;SDS011;60035;52.122;5.406;2023-04-07T10:48:17;7.07;;;1.75;;
72156;SDS011;60035;52.122;5.406;2023-04-07T10:50:45;6.53;;;1.70;;
72156;SDS011;60035;52.122;5.406;2023-04-07T10:53:33;5.10;;;1.55;;
72156;SDS011;60035;52.122;5.406;2023-04-07T10:56:03;6.65;;;1.67;;
72156;SDS011;60035;52.122;5.406;2023-04-07T10:58:31;10.88;;;2.20;;
72156;SDS011;60035;52.122;5.406;2023-04-07T11:03:26;7.13;;;1.98;;
72156;SDS011;60035;52.122;5.406;2023-04-07T11:06:04;8.40;;;2.10;;
72156;SDS011;60035;52.122;5.406;2023-04-07T11:08:36;7.47;;;2.17;;
72156;SDS011;60035;52.122;5.406;2023-04-07T11:11:08;11.15;;;2.78;;
72156;SDS011;60035;52.122;5.406;2023-04-07T11:13:46;6.63;;;2.17;;
72156;SDS011;60035;52.122;5.406;2023-04-07T11:16:14;7.10;;;2.50;;
72156;SDS011;60035;52.122;5.406;2023-04-07T11:18:44;8.20;;;1.90;;
72156;SDS011;60035;52.122;5.406;2023-04-07T11:21:16;7.25;;;2.30;;
72156;SDS011;60035;52.122;5.406;2023-04-07T11:23:45;9.77;;;3.05;;
72156;SDS011;60035;52.122;5.406;2023-04-07T11:26:14;7.78;;;1.92;;
72156;SDS011;60035;52.122;5.406;2023-04-07T11:28:44;9.93;;;2.30;;
72156;SDS011;60035;52.122;5.406;2023-04-07T11:31:20;8.20;;;2.20;;
72156;SDS011;60035;52.122;5.406;2023-04-07T11:33:55;11.70;;;2.70;;
72156;SDS011;60035;52.122;5.406;2023-04-07T11:38:59;9.05;;;2.80;;
72156;SDS011;60035;52.122;5.406;2023-04-07T11:41:28;11.20;;;2.95;;
72156;SDS011;60035;52.122;5.406;2023-04-07T11:44:07;10.23;;;2.05;;
72156;SDS011;60035;52.122;5.406;2023-04-07T11:46:35;9.93;;;2.22;;
72156;SDS011;60035;52.122;5.406;2023-04-07T11:49:10;7.45;;;2.20;;
72156;SDS011;60035;52.122;5.406;2023-04-07T11:51:39;7.25;;;2.30;;
72156;SDS011;60035;52.122;5.406;2023-04-07T11:54:09;9.52;;;2.97;;
72156;SDS011;60035;52.122;5.406;2023-04-07T11:56:43;9.68;;;2.22;;
72156;SDS011;60035;52.122;5.406;2023-04-07T11:59:18;11.70;;;2.33;;
72156;SDS011;60035;52.122;5.406;2023-04-07T12:01:50;9.50;;;2.38;;
72156;SDS011;60035;52.122;5.406;2023-04-07T12:04:21;10.35;;;3.05;;
72156;SDS011;60035;52.122;5.406;2023-04-07T12:06:48;9.77;;;2.60;;
72156;SDS011;60035;52.122;5.406;2023-04-07T12:09:27;10.20;;;3.50;;
72156;SDS011;60035;52.122;5.406;2023-04-07T12:11:57;7.97;;;2.65;;
72156;SDS011;60035;52.122;5.406;2023-04-07T12:14:25;10.80;;;2.70;;
72156;SDS011;60035;52.122;5.406;2023-04-07T12:16:53;6.63;;;2.15;;
72156;SDS011;60035;52.122;5.406;2023-04-07T12:19:22;12.02;;;3.28;;
72156;SDS011;60035;52.122;5.406;2023-04-07T12:21:49;8.45;;;2.30;;
72156;SDS011;60035;52.122;5.406;2023-04-07T12:24:16;10.60;;;2.75;;
72156;SDS011;60035;52.122;5.406;2023-04-07T12:26:43;11.25;;;2.10;;
72156;SDS011;60035;52.122;5.406;2023-04-07T12:29:09;11.05;;;2.67;;
72156;SDS011;60035;52.122;5.406;2023-04-07T12:31:36;5.03;;;1.70;;
72156;SDS011;60035;52.122;5.406;2023-04-07T12:34:03;10.32;;;2.05;;
72156;SDS011;60035;52.122;5.406;2023-04-07T12:36:29;7.20;;;1.88;;
72156;SDS011;60035;52.122;5.406;2023-04-07T12:38:56;6.90;;;1.75;;
72156;SDS011;60035;52.122;5.406;2023-04-07T12:41:24;10.18;;;1.80;;
72156;SDS011;60035;52.122;5.406;2023-04-07T12:43:50;6.35;;;1.70;;
72156;SDS011;60035;52.122;5.406;2023-04-07T12:46:18;5.78;;;1.83;;
72156;SDS011;60035;52.122;5.406;2023-04-07T12:48:46;9.05;;;2.05;;
72156;SDS011;60035;52.122;5.406;2023-04-07T12:51:13;7.22;;;2.00;;
72156;SDS011;60035;52.122;5.406;2023-04-07T12:53:39;6.35;;;1.88;;
72156;SDS011;60035;52.122;5.406;2023-04-07T12:56:06;4.05;;;1.50;;
72156;SDS011;60035;52.122;5.406;2023-04-07T12:58:33;7.07;;;2.40;;
72156;SDS011;60035;52.122;5.406;2023-04-07T13:00:59;5.80;;;2.45;;
72156;SDS011;60035;52.122;5.406;2023-04-07T13:03:26;7.28;;;1.73;;
72156;SDS011;60035;52.122;5.406;2023-04-07T13:05:53;6.15;;;1.95;;
72156;SDS011;60035;52.122;5.406;2023-04-07T13:08:20;8.27;;;2.03;;
72156;SDS011;60035;52.122;5.406;2023-04-07T13:10:47;5.90;;;2.03;;
72156;SDS011;60035;52.122;5.406;2023-04-07T13:13:14;5.82;;;1.70;;
72156;SDS011;60035;52.122;5.406;2023-04-07T13:15:41;6.43;;;1.98;;
72156;SDS011;60035;52.122;5.406;2023-04-07T13:18:07;7.50;;;1.92;;
72156;SDS011;60035;52.122;5.406;2023-04-07T13:20:34;4.82;;;1.90;;
72156;SDS011;60035;52.122;5.406;2023-04-07T13:23:00;9.70;;;2.70;;
72156;SDS011;60035;52.122;5.406;2023-04-07T13:25:35;9.15;;;2.83;;
72156;SDS011;60035;52.122;5.406;2023-04-07T13:28:01;6.53;;;1.90;;
72156;SDS011;60035;52.122;5.406;2023-04-07T13:30:28;6.68;;;2.03;;
72156;SDS011;60035;52.122;5.406;2023-04-07T13:32:55;13.65;;;2.60;;
72156;SDS011;60035;52.122;5.406;2023-04-07T13:35:22;8.40;;;2.70;;
72156;SDS011;60035;52.122;5.406;2023-04-07T13:37:48;7.70;;;2.38;;
72156;SDS011;60035;52.122;5.406;2023-04-07T13:40:15;9.60;;;3.75;;
72156;SDS011;60035;52.122;5.406;2023-04-07T13:42:42;10.88;;;2.80;;
72156;SDS011;60035;52.122;5.406;2023-04-07T13:45:08;11.13;;;3.35;;
72156;SDS011;60035;52.122;5.406;2023-04-07T13:47:35;9.57;;;3.17;;
72156;SDS011;60035;52.122;5.406;2023-04-07T13:50:02;9.55;;;2.75;;
72156;SDS011;60035;52.122;5.406;2023-04-07T13:52:29;9.57;;;3.20;;
72156;SDS011;60035;52.122;5.406;2023-04-07T13:54:58;9.02;;;2.92;;
72156;SDS011;60035;52.122;5.406;2023-04-07T13:57:24;9.65;;;3.55;;
72156;SDS011;60035;52.122;5.406;2023-04-07T13:59:51;4.93;;;2.00;;
72156;SDS011;60035;52.122;5.406;2023-04-07T14:02:17;8.48;;;2.15;;
72156;SDS011;60035;52.122;5.406;2023-04-07T14:04:45;11.05;;;3.42;;
72156;SDS011;60035;52.122;5.406;2023-04-07T14:07:11;8.57;;;2.40;;
72156;SDS011;60035;52.122;5.406;2023-04-07T14:09:38;5.72;;;2.10;;
72156;SDS011;60035;52.122;5.406;2023-04-07T14:12:05;7.25;;;1.98;;
72156;SDS011;60035;52.122;5.406;2023-04-07T14:14:31;8.00;;;2.70;;
72156;SDS011;60035;52.122;5.406;2023-04-07T14:16:58;4.82;;;1.63;;
72156;SDS011;60035;52.122;5.406;2023-04-07T14:19:24;8.32;;;2.30;;
72156;SDS011;60035;52.122;5.406;2023-04-07T14:21:51;5.82;;;2.70;;
72156;SDS011;60035;52.122;5.406;2023-04-07T14:24:17;7.72;;;2.63;;
72156;SDS011;60035;52.122;5.406;2023-04-07T14:26:44;7.35;;;1.80;;
72156;SDS011;60035;52.122;5.406;2023-04-07T14:29:11;6.80;;;1.83;;
72156;SDS011;60035;52.122;5.406;2023-04-07T14:31:38;6.72;;;1.80;;
72156;SDS011;60035;52.122;5.406;2023-04-07T14:34:07;7.18;;;2.20;;
72156;SDS011;60035;52.122;5.406;2023-04-07T14:36:33;7.07;;;2.13;;
72156;SDS011;60035;52.122;5.406;2023-04-07T14:39:00;8.02;;;2.10;;
72156;SDS011;60035;52.122;5.406;2023-04-07T14:41:27;7.20;;;2.30;;
72156;SDS011;60035;52.122;5.406;2023-04-07T14:43:53;8.15;;;2.75;;
72156;SDS011;60035;52.122;5.406;2023-04-07T14:46:24;9.95;;;2.55;;
72156;SDS011;60035;52.122;5.406;2023-04-07T14:51:22;11.70;;;2.70;;
72156;SDS011;60035;52.122;5.406;2023-04-07T14:53:49;8.95;;;3.72;;
72156;SDS011;60035;52.122;5.406;2023-04-07T14:56:21;7.10;;;2.53;;
72156;SDS011;60035;52.122;5.406;2023-04-07T14:58:47;10.40;;;3.42;;
72156;SDS011;60035;52.122;5.406;2023-04-07T15:01:14;12.93;;;3.92;;
72156;SDS011;60035;52.122;5.406;2023-04-07T15:03:41;13.50;;;3.15;;